Main page
METAR-TAF:

METAR-TAF

Airports :

Blackpool Airport

Blackpool, England

latitude: 53-46N, longitude: 003-02W, elevation: 10 m

Current weather observation

The report was made 34 minutes ago, at 07:20 UTC
Wind 16 kt from the West
Temperature 7°C
Humidity 70%
Pressure 1031 hPa
Visibility 10 km or more
Few clouds at a height of 3700 ft

METAR: EGNH 240720Z 28016KT 9999 FEW037 07/02 Q1031

Time: 07:54 (07:54 UTC)

Forecast

The report was made 55 minutes ago, at 06:59 UTC
Forecast valid from 24 at 07 UTC to 24 at 15 UTC
Wind 15 kt from the West
Visibility 10 km or more
Scattered clouds at a height of 3000 ft
Temporary
from 24 at 12 UTC to 24 at 15 UTC
Wind 18 kt from the West/Northwest with gusts up to 28 kt

TAF: EGNH 240659Z 2407/2415 28015KT 9999 SCT030 TEMPO 2412/2415 30018G28KT

Weather observations and forecasts of more than 4000 airports (METAR and TAF reports).

The available stations are represented by yellow and red dots on the map.

Hover mouse over dot to see the name of the station.

Then click to see weather observations and forecasts.

To change the map : click on the green buttons with a black cross to zoom in, on the green button with a dash to zoom out, or on the green arrows for adjacent maps.


METAR-TAF: